Time;durP1;ratioP1;P1;durP2;ratioP2;P2;SDS_P1;SDS_P2;PMS_P1;PMS_P2;Temp;Humidity;BMP_temperature;BMP_pressure;BME280_temperature;BME280_humidity;BME280_pressure;Samples;Min_cycle;Max_cycle;Signal;HPM_P1;HPM_P2
2021/03/21 00:02:04;;;;;;;6.10;2.50;;;;;;;10.04;72.74;102770.09;5069185;28;20527;-48
2021/03/21 00:04:31;;;;;;;7.22;3.25;;;;;;;10.04;72.74;102770.09;5068102;28;20048;-48
2021/03/21 00:06:57;;;;;;;7.75;2.97;;;;;;;10.06;72.84;102774.22;5069339;28;20036;-48
2021/03/21 00:09:24;;;;;;;6.88;2.78;;;;;;;10.08;72.96;102769.22;5073937;28;20037;-50
2021/03/21 00:11:52;;;;;;;4.53;2.63;;;;;;;10.10;72.83;102774.47;5073205;28;20039;-52
2021/03/21 00:14:18;;;;;;;6.10;3.28;;;;;;;10.10;72.85;102768.91;5069909;28;20123;-47
2021/03/21 00:16:44;;;;;;;10.32;4.43;;;;;;;10.11;72.93;102771.38;5055528;28;20154;-57
2021/03/21 00:19:12;;;;;;;6.07;2.75;;;;;;;10.11;72.91;102765.06;5072660;28;20055;-48
2021/03/21 00:21:38;;;;;;;9.35;2.88;;;;;;;10.10;73.03;102774.47;5073413;28;20044;-47
2021/03/21 00:24:06;;;;;;;4.28;2.50;;;;;;;10.08;73.12;102766.47;5082966;28;20087;-57
2021/03/21 00:26:33;;;;;;;4.65;2.80;;;;;;;10.10;73.13;102772.53;5084168;28;20048;-55
2021/03/21 00:28:59;;;;;;;8.73;2.90;;;;;;;10.08;73.34;102772.00;5071318;28;20040;-49
2021/03/21 00:31:26;;;;;;;9.63;2.83;;;;;;;10.07;73.37;102770.34;5070751;28;20068;-48
2021/03/21 00:33:52;;;;;;;6.72;2.72;;;;;;;10.07;73.30;102763.97;5054232;28;20036;-51
2021/03/21 00:36:19;;;;;;;11.15;3.38;;;;;;;10.06;73.45;102762.34;5075220;28;20094;-48
2021/03/21 00:38:49;;;;;;;8.73;3.95;;;;;;;10.04;73.47;102772.84;5074597;28;20044;-48
2021/03/21 00:41:22;;;;;;;8.45;2.58;;;;;;;10.02;73.72;102773.16;5076996;28;20049;-47
2021/03/21 00:43:54;;;;;;;12.88;3.08;;;;;;;10.02;73.75;102766.78;5094548;28;20131;-52
2021/03/21 00:46:22;;;;;;;9.32;2.70;;;;;;;9.99;73.78;102768.19;5090568;28;20047;-49
2021/03/21 00:48:49;;;;;;;4.32;2.72;;;;;;;10.01;73.63;102771.50;5074676;28;20040;-47
2021/03/21 00:51:16;;;;;;;6.13;2.40;;;;;;;10.02;73.63;102767.63;5074509;28;20127;-48
2021/03/21 00:53:44;;;;;;;8.90;3.65;;;;;;;9.96;74.04;102754.94;5074297;28;20068;-47
2021/03/21 00:56:27;;;;;;;5.97;2.67;;;;;;;9.88;74.32;102758.34;5073926;28;20443;-48
2021/03/21 00:58:54;;;;;;;8.55;3.08;;;;;;;9.85;74.24;102761.69;5074018;28;20071;-48
2021/03/21 01:01:21;;;;;;;5.50;2.65;;;;;;;9.90;74.08;102760.84;5074194;28;20044;-50
2021/03/21 01:03:48;;;;;;;5.80;3.13;;;;;;;9.89;74.20;102751.72;5073513;28;20105;-51
2021/03/21 01:06:14;;;;;;;5.68;2.20;;;;;;;9.85;74.55;102749.81;5074577;28;20048;-49
2021/03/21 01:08:41;;;;;;;6.78;2.92;;;;;;;9.86;74.51;102751.47;5074149;28;20143;-49
2021/03/21 01:11:14;;;;;;;6.68;2.75;;;;;;;9.85;74.64;102747.06;5074057;28;20083;-52
2021/03/21 01:13:42;;;;;;;8.68;2.65;;;;;;;9.85;74.66;102744.28;5073287;28;20056;-53
2021/03/21 01:16:14;;;;;;;4.65;2.22;;;;;;;9.86;74.72;102743.16;5065566;28;20106;-50
2021/03/21 01:18:41;;;;;;;6.95;2.72;;;;;;;9.86;74.65;102738.44;5074126;28;20063;-52
2021/03/21 01:21:11;;;;;;;11.70;3.30;;;;;;;9.84;74.81;102737.94;5074116;28;20474;-50
2021/03/21 01:23:42;;;;;;;12.88;3.20;;;;;;;9.77;75.03;102742.97;5055800;28;20099;-50
2021/03/21 01:26:17;;;;;;;5.45;2.42;;;;;;;9.78;75.16;102739.09;5074347;28;20040;-50
2021/03/21 01:28:44;;;;;;;11.85;2.78;;;;;;;9.80;75.05;102736.84;5073659;28;20097;-49
2021/03/21 01:31:22;;;;;;;8.82;2.42;;;;;;;9.79;75.03;102732.44;5073846;28;20096;-52
2021/03/21 01:33:49;;;;;;;5.93;2.17;;;;;;;9.74;75.26;102732.50;5073519;28;20048;-55
2021/03/21 01:36:28;;;;;;;6.85;3.05;;;;;;;9.72;75.61;102734.72;5073821;28;20505;-53
2021/03/21 01:38:57;;;;;;;8.35;2.55;;;;;;;9.71;75.41;102744.97;5073770;28;20045;-55
2021/03/21 01:41:27;;;;;;;7.22;3.40;;;;;;;9.75;75.44;102745.19;5073109;28;20043;-51
2021/03/21 01:43:54;;;;;;;9.30;2.97;;;;;;;9.76;75.37;102742.16;5052534;28;20083;-54
2021/03/21 01:46:28;;;;;;;7.60;3.35;;;;;;;9.74;75.56;102729.72;5035011;28;20041;-53
2021/03/21 01:48:57;;;;;;;14.20;3.15;;;;;;;9.70;75.65;102720.34;5070218;28;20583;-49
2021/03/21 01:51:35;;;;;;;10.65;3.05;;;;;;;9.71;76.37;102738.63;5073867;28;20080;-51
2021/03/21 01:54:13;;;;;;;9.70;2.35;;;;;;;9.73;75.71;102733.59;5053532;28;20048;-53
2021/03/21 01:56:40;;;;;;;10.57;3.72;;;;;;;9.71;75.98;102741.38;5055181;28;20573;-51
2021/03/21 01:59:21;;;;;;;11.38;5.22;;;;;;;9.65;75.86;102723.16;5073361;28;20048;-52
2021/03/21 02:01:48;;;;;;;11.23;3.83;;;;;;;9.64;76.07;102721.50;5073280;28;20068;-52
2021/03/21 02:04:15;;;;;;;9.32;2.92;;;;;;;9.63;76.18;102719.88;5055076;28;20161;-48
2021/03/21 02:06:58;;;;;;;19.63;5.20;;;;;;;9.61;76.91;102716.59;5074518;28;20048;-50
2021/03/21 02:09:32;;;;;;;7.80;3.22;;;;;;;9.63;76.53;102714.34;5073861;28;20123;-54
2021/03/21 02:12:10;;;;;;;11.80;3.50;;;;;;;9.63;76.49;102706.06;5057575;28;20040;-52
2021/03/21 02:14:56;;;;;;;10.23;3.30;;;;;;;9.60;76.57;102706.63;5073114;28;20059;-49
2021/03/21 02:17:50;;;;;;;7.70;2.88;;;;;;;9.54;77.19;102705.84;5073656;28;20464;-51
2021/03/21 02:20:43;;;;;;;7.18;3.80;;;;;;;9.55;77.23;102701.16;5073212;28;20036;-51
2021/03/21 02:23:29;;;;;;;15.10;5.22;;;;;;;9.52;77.48;102685.97;5072909;28;20075;-49
2021/03/21 02:26:11;;;;;;;6.22;3.78;;;;;;;9.53;77.07;102686.81;5014720;28;20387;-51
2021/03/21 02:29:03;;;;;;;20.83;4.85;;;;;;;9.51;77.42;102689.84;5054368;28;20094;-49
2021/03/21 02:31:45;;;;;;;8.00;3.35;;;;;;;9.49;77.61;102674.66;5072507;28;20247;-49
2021/03/21 02:34:29;;;;;;;13.40;5.00;;;;;;;9.49;77.24;102674.66;5072368;28;20052;-49
2021/03/21 02:37:07;;;;;;;10.27;3.47;;;;;;;9.48;77.33;102676.59;5073065;28;20076;-52
2021/03/21 02:39:40;;;;;;;13.82;4.63;;;;;;;9.48;77.38;102673.00;5072884;28;20036;-53
2021/03/21 02:42:13;;;;;;;10.10;4.25;;;;;;;9.45;77.19;102684.66;5072555;28;20094;-50
2021/03/21 02:44:56;;;;;;;7.20;3.78;;;;;;;9.47;77.36;102682.41;5073552;28;20047;-51
2021/03/21 02:47:28;;;;;;;9.07;3.63;;;;;;;9.47;77.47;102676.91;5083900;28;20560;-52
2021/03/21 02:49:58;;;;;;;9.23;3.90;;;;;;;9.46;77.38;102675.22;5072784;28;20040;-50
2021/03/21 02:52:37;;;;;;;10.52;3.72;;;;;;;9.41;77.68;102692.69;5072586;28;20040;-50
2021/03/21 02:55:18;;;;;;;9.38;4.72;;;;;;;9.43;77.52;102689.63;5071885;28;20056;-52
2021/03/21 02:57:52;;;;;;;9.18;4.28;;;;;;;9.44;77.58;102677.47;5071039;28;20128;-54
2021/03/21 03:00:25;;;;;;;8.20;3.67;;;;;;;9.45;77.82;102673.59;5069323;28;20080;-49
2021/03/21 03:02:55;;;;;;;12.38;4.10;;;;;;;9.41;77.73;102670.59;5053128;28;20110;-52
2021/03/21 03:05:27;;;;;;;9.05;4.00;;;;;;;9.43;77.72;102686.88;5072428;28;20044;-51
2021/03/21 03:07:58;;;;;;;14.15;5.13;;;;;;;9.45;77.71;102679.13;5071990;28;20040;-50
2021/03/21 03:10:43;;;;;;;13.13;4.22;;;;;;;9.46;77.71;102691.81;5072368;28;20082;-52
2021/03/21 03:13:21;;;;;;;8.25;3.85;;;;;;;9.45;77.77;102670.84;5072051;28;20036;-49
2021/03/21 03:15:49;;;;;;;12.65;4.07;;;;;;;9.40;77.15;102670.88;5072372;28;20056;-52
2021/03/21 03:18:42;;;;;;;10.60;4.57;;;;;;;9.38;77.66;102676.69;5072053;28;20048;-49
2021/03/21 03:21:56;;;;;;;12.82;4.10;;;;;;;9.31;78.14;102667.09;5072418;28;20048;-51
2021/03/21 03:24:39;;;;;;;7.88;4.22;;;;;;;9.26;78.07;102658.84;5017080;28;20073;-51
2021/03/21 03:27:14;;;;;;;12.05;4.80;;;;;;;9.22;78.60;102652.22;5069567;28;20424;-49
2021/03/21 03:29:52;;;;;;;13.85;4.50;;;;;;;9.11;78.85;102660.59;5058887;28;20093;-50
2021/03/21 03:32:18;;;;;;;14.20;4.78;;;;;;;9.06;78.68;102677.22;5071980;28;20089;-50
2021/03/21 03:34:51;;;;;;;14.07;4.50;;;;;;;9.09;78.72;102665.59;5071741;28;20047;-52
2021/03/21 03:37:17;;;;;;;11.00;4.10;;;;;;;9.13;78.70;102655.63;5071820;28;20045;-50
2021/03/21 03:39:44;;;;;;;8.88;3.90;;;;;;;9.08;79.15;102658.41;5075623;28;20481;-51
2021/03/21 03:42:29;;;;;;;11.35;4.38;;;;;;;9.09;79.15;102657.31;5072480;28;20074;-49
2021/03/21 03:45:33;;;;;;;12.32;4.75;;;;;;;9.17;78.92;102661.41;5073176;28;20044;-52
2021/03/21 03:48:09;;;;;;;7.07;3.53;;;;;;;9.21;79.26;102661.66;5072509;28;20067;-50
2021/03/21 03:50:35;;;;;;;14.00;4.50;;;;;;;9.24;78.55;102650.03;5070467;28;20382;-48
2021/03/21 03:53:19;;;;;;;10.20;3.78;;;;;;;9.22;79.14;102658.59;5071879;28;20094;-50
2021/03/21 03:56:10;;;;;;;10.00;3.92;;;;;;;9.21;78.95;102667.19;5071672;28;20397;-49
2021/03/21 03:59:01;;;;;;;12.68;3.85;;;;;;;9.23;79.16;102664.94;5072312;28;20115;-52
2021/03/21 04:01:55;;;;;;;11.18;3.60;;;;;;;9.23;79.65;102659.41;5073424;28;20083;-52
2021/03/21 04:04:33;;;;;;;8.52;3.55;;;;;;;9.20;80.07;102647.00;5073034;28;20119;-49
2021/03/21 04:07:05;;;;;;;12.93;3.58;;;;;;;9.17;80.04;102648.41;5072000;28;20040;-53
2021/03/21 04:09:41;;;;;;;9.77;3.50;;;;;;;9.18;80.13;102661.13;5072037;28;20516;-49
2021/03/21 04:12:11;;;;;;;11.20;4.60;;;;;;;9.24;79.96;102661.06;5073088;28;20075;-55
2021/03/21 04:14:47;;;;;;;10.65;3.67;;;;;;;9.26;80.33;102645.03;5071609;28;20456;-53
2021/03/21 04:17:24;;;;;;;14.15;4.78;;;;;;;9.23;80.83;102631.78;5070542;28;20048;-55
2021/03/21 04:20:04;;;;;;;11.98;3.45;;;;;;;9.18;81.09;102647.31;5071625;28;20059;-55
2021/03/21 04:22:35;;;;;;;9.65;4.03;;;;;;;9.19;80.65;102657.22;5051374;28;20045;-55
2021/03/21 04:25:10;;;;;;;12.98;4.45;;;;;;;9.16;81.44;102660.56;5051505;28;20079;-49
2021/03/21 04:27:44;;;;;;;11.60;4.50;;;;;;;9.14;81.05;102653.69;5051338;28;20081;-50
2021/03/21 04:30:20;;;;;;;11.90;4.43;;;;;;;9.10;81.12;102649.84;5052631;28;20045;-48
2021/03/21 04:33:12;;;;;;;11.82;4.22;;;;;;;9.13;81.17;102644.56;5052827;28;20423;-49
2021/03/21 04:36:08;;;;;;;10.65;4.53;;;;;;;9.10;81.63;102650.69;5051470;28;20041;-52
2021/03/21 04:39:00;;;;;;;11.48;4.85;;;;;;;9.06;81.52;102637.72;5054518;28;20090;-52
2021/03/21 04:41:40;;;;;;;9.77;4.20;;;;;;;9.05;81.13;102636.88;5053575;28;20402;-50
2021/03/21 04:44:12;;;;;;;15.82;7.05;;;;;;;9.07;81.55;102634.69;5053915;28;20126;-50
2021/03/21 04:46:45;;;;;;;;;;;;;;;9.06;82.29;102627.50;5054533;28;20402;-51
2021/03/21 04:49:12;;;;;;;15.75;4.53;;;;;;;9.05;80.89;102628.59;5072374;28;20316;-48
2021/03/21 04:51:43;;;;;;;17.52;5.10;;;;;;;9.05;80.98;102650.72;5071910;28;20044;-48
2021/03/21 04:54:18;;;;;;;11.40;4.80;;;;;;;8.98;81.24;102655.75;5074564;28;20496;-49
2021/03/21 04:56:47;;;;;;;15.35;4.40;;;;;;;8.96;81.27;102649.69;5075832;28;20086;-50
2021/03/21 04:59:18;;;;;;;14.90;5.57;;;;;;;8.93;81.33;102635.63;5074560;28;20076;-49
2021/03/21 05:01:50;;;;;;;15.15;4.82;;;;;;;8.89;81.40;102632.63;5074144;28;20089;-50
2021/03/21 05:04:18;;;;;;;;;;;;;;;8.86;81.87;102649.78;5074348;28;20371;-49
2021/03/21 05:06:53;;;;;;;8.75;5.63;;;;;;;8.85;80.96;102642.59;5074542;28;20392;-47
2021/03/21 05:09:26;;;;;;;9.23;4.75;;;;;;;8.81;81.30;102640.69;5074746;28;20151;-50
2021/03/21 05:11:59;;;;;;;7.68;4.50;;;;;;;8.75;81.53;102639.06;5062551;28;20492;-48
2021/03/21 05:14:40;;;;;;;9.80;4.72;;;;;;;8.69;81.51;102638.28;5074018;28;20080;-50
2021/03/21 05:17:15;;;;;;;15.57;5.10;;;;;;;8.67;81.51;102650.72;5073256;28;20539;-51
2021/03/21 05:19:57;;;;;;;11.40;5.93;;;;;;;8.63;81.72;102663.47;5074425;28;20048;-48
2021/03/21 05:22:42;;;;;;;13.65;5.30;;;;;;;8.61;81.42;102652.69;5073790;28;20131;-48
2021/03/21 05:25:25;;;;;;;10.82;4.93;;;;;;;8.58;81.30;102654.09;5073139;28;20541;-50
2021/03/21 05:28:20;;;;;;;12.50;5.00;;;;;;;8.52;81.64;102652.47;5074060;28;20076;-51
2021/03/21 05:30:59;;;;;;;12.55;4.68;;;;;;;8.51;81.53;102652.75;5054342;28;20084;-50
2021/03/21 05:33:25;;;;;;;11.18;5.32;;;;;;;8.47;81.63;102654.44;5053242;28;20045;-47
2021/03/21 05:35:56;;;;;;;14.38;5.60;;;;;;;8.45;81.83;102660.25;5036123;28;20139;-50
2021/03/21 05:38:37;;;;;;;12.88;5.32;;;;;;;8.47;81.79;102663.53;5054272;28;20447;-53
2021/03/21 05:41:41;;;;;;;12.55;5.93;;;;;;;8.46;82.43;102659.13;5054169;28;20041;-50
2021/03/21 05:44:45;;;;;;;11.85;5.10;;;;;;;8.44;82.36;102649.50;5037306;28;20098;-50
2021/03/21 05:47:20;;;;;;;14.05;5.10;;;;;;;8.43;81.76;102656.94;5084153;28;20420;-48
2021/03/21 05:50:09;;;;;;;17.73;5.18;;;;;;;8.44;81.92;102652.25;5073990;28;20044;-50
2021/03/21 05:52:39;;;;;;;12.25;5.70;;;;;;;8.46;81.85;102661.06;5073414;28;20452;-49
2021/03/21 05:55:31;;;;;;;16.35;5.50;;;;;;;8.43;81.91;102656.13;5074013;28;20101;-50
2021/03/21 05:58:31;;;;;;;9.27;5.10;;;;;;;8.44;82.07;102658.59;5073861;28;20083;-48
2021/03/21 06:01:39;;;;;;;15.07;4.85;;;;;;;8.42;82.05;102651.69;5053787;28;20120;-48
2021/03/21 06:04:27;;;;;;;12.45;5.00;;;;;;;8.41;82.00;102663.84;5072242;28;20420;-49
2021/03/21 06:07:22;;;;;;;17.42;6.45;;;;;;;8.42;82.28;102666.31;5073456;28;20045;-48
2021/03/21 06:10:06;;;;;;;12.15;5.15;;;;;;;8.45;82.15;102667.69;5072978;28;20064;-53
2021/03/21 06:12:38;;;;;;;9.63;6.00;;;;;;;8.46;82.00;102661.06;5068257;28;20127;-50
2021/03/21 06:15:45;;;;;;;8.18;4.70;;;;;;;8.45;82.42;102662.16;5073309;28;20440;-49
2021/03/21 06:18:26;;;;;;;8.52;4.78;;;;;;;8.47;82.23;102671.00;5069548;28;20391;-54
2021/03/21 06:21:10;;;;;;;12.65;5.13;;;;;;;8.49;82.26;102671.53;5073033;28;20082;-48
2021/03/21 06:23:55;;;;;;;11.38;4.90;;;;;;;8.50;82.40;102673.19;5073107;28;20068;-48
2021/03/21 06:26:40;;;;;;;6.85;4.43;;;;;;;8.49;82.03;102657.75;5073802;28;20127;-48
2021/03/21 06:29:57;;;;;;;10.85;4.60;;;;;;;8.47;82.31;102665.50;5073754;28;20037;-48
2021/03/21 06:32:35;;;;;;;17.65;4.45;;;;;;;8.47;82.14;102676.53;5073445;28;20037;-48
2021/03/21 06:35:23;;;;;;;14.30;4.90;;;;;;;8.45;82.09;102681.50;5073021;28;20044;-51
2021/03/21 06:38:08;;;;;;;10.63;5.00;;;;;;;8.45;82.16;102682.31;5072802;28;20044;-48
2021/03/21 06:40:43;;;;;;;12.93;6.40;;;;;;;8.46;81.97;102669.34;5080414;28;20043;-48
2021/03/21 06:43:18;;;;;;;9.05;4.72;;;;;;;8.43;82.14;102683.72;5076001;28;20083;-50
2021/03/21 06:46:02;;;;;;;11.88;4.22;;;;;;;8.46;82.11;102694.19;5072870;28;20072;-48
2021/03/21 06:48:54;;;;;;;10.77;3.88;;;;;;;8.44;81.95;102697.25;5072807;28;20041;-48
2021/03/21 06:51:45;;;;;;;15.27;4.82;;;;;;;8.44;81.80;102691.72;5054952;28;20146;-49
2021/03/21 06:54:32;;;;;;;8.27;2.85;;;;;;;8.41;81.66;102692.28;5072712;28;20186;-48
2021/03/21 06:57:16;;;;;;;6.47;2.97;;;;;;;8.44;81.28;102704.69;5072962;28;20044;-48
2021/03/21 07:00:01;;;;;;;7.13;4.00;;;;;;;8.42;81.50;102695.84;5072828;28;20494;-49
2021/03/21 07:03:00;;;;;;;7.50;3.53;;;;;;;8.46;81.26;102699.72;5029863;28;20497;-48
2021/03/21 07:06:03;;;;;;;6.85;3.22;;;;;;;8.47;81.39;102701.38;5053133;28;20463;-49
2021/03/21 07:09:00;;;;;;;6.88;3.45;;;;;;;8.46;81.12;102696.94;5053363;28;20045;-47
2021/03/21 07:11:44;;;;;;;8.88;3.58;;;;;;;8.47;80.92;102696.66;5053373;28;20461;-47
2021/03/21 07:14:45;;;;;;;9.63;3.05;;;;;;;8.45;80.94;102692.53;5053807;28;20052;-48
2021/03/21 07:17:49;;;;;;;10.98;3.38;;;;;;;8.46;81.04;102696.94;5052207;28;20069;-48
2021/03/21 07:20:16;;;;;;;7.28;2.20;;;;;;;8.51;80.83;102695.00;5023152;28;20460;-49
2021/03/21 07:23:01;;;;;;;7.78;2.63;;;;;;;8.53;80.52;102694.69;5056053;28;20131;-50
2021/03/21 07:25:56;;;;;;;12.30;2.40;;;;;;;8.55;80.44;102703.53;5073509;28;20543;-50
2021/03/21 07:29:00;;;;;;;13.25;2.78;;;;;;;8.55;80.17;102698.81;5073633;28;20044;-49
2021/03/21 07:31:41;;;;;;;6.90;2.17;;;;;;;8.56;80.16;102694.13;5073664;28;20075;-49
2021/03/21 07:34:19;;;;;;;5.15;2.17;;;;;;;8.58;79.98;102697.44;5072415;28;20052;-49
2021/03/21 07:37:07;;;;;;;5.03;1.77;;;;;;;8.60;79.53;102695.22;5039034;28;20451;-48
2021/03/21 07:39:58;;;;;;;3.38;1.58;;;;;;;8.61;79.14;102694.09;5072473;28;20048;-51
2021/03/21 07:42:45;;;;;;;7.40;2.22;;;;;;;8.64;79.31;102701.81;5053686;28;20044;-48
2021/03/21 07:45:32;;;;;;;4.72;1.27;;;;;;;8.64;79.20;102710.09;5072606;28;20040;-48
2021/03/21 07:48:13;;;;;;;6.07;2.35;;;;;;;8.62;78.15;102697.69;5021206;28;20110;-51
2021/03/21 07:50:52;;;;;;;7.13;1.60;;;;;;;8.66;78.27;102699.59;5071964;28;20048;-49
2021/03/21 07:53:42;;;;;;;6.63;1.52;;;;;;;8.71;78.17;102713.38;5071975;28;20100;-48
2021/03/21 07:56:16;;;;;;;3.92;1.95;;;;;;;8.76;78.21;102709.78;5072150;28;20076;-51
2021/03/21 07:59:07;;;;;;;5.00;1.52;;;;;;;8.74;77.99;102707.28;5070858;28;20132;-50
2021/03/21 08:01:33;;;;;;;7.35;2.40;;;;;;;8.83;77.96;102702.81;5072802;28;20044;-48
2021/03/21 08:04:21;;;;;;;4.30;1.60;;;;;;;8.89;77.67;102693.41;5071206;28;20045;-49
2021/03/21 08:06:57;;;;;;;8.90;2.40;;;;;;;8.90;77.36;102695.03;5072219;28;20060;-48
2021/03/21 08:09:36;;;;;;;4.30;1.48;;;;;;;8.92;77.18;102705.81;5054000;28;20467;-49
2021/03/21 08:12:20;;;;;;;7.10;1.92;;;;;;;8.97;77.37;102712.13;5072704;28;20068;-51
2021/03/21 08:14:51;;;;;;;9.82;1.95;;;;;;;9.01;77.10;102688.31;5071710;28;20505;-51
2021/03/21 08:17:31;;;;;;;3.33;1.55;;;;;;;9.05;76.93;102692.16;5072962;28;20037;-49
2021/03/21 08:20:16;;;;;;;6.00;2.53;;;;;;;9.13;76.91;102699.81;5071520;28;20056;-51
2021/03/21 08:22:42;;;;;;;6.30;1.80;;;;;;;9.22;76.99;102704.75;5054729;28;20041;-48
2021/03/21 08:25:27;;;;;;;7.38;2.33;;;;;;;9.34;76.79;102696.91;5053549;28;20132;-49
2021/03/21 08:27:54;;;;;;;3.83;1.30;;;;;;;9.41;76.58;102689.09;5071061;28;20072;-50
2021/03/21 08:30:26;;;;;;;10.30;1.65;;;;;;;9.44;76.25;102689.34;5076874;28;20127;-50
2021/03/21 08:33:27;;;;;;;5.22;1.70;;;;;;;9.56;76.34;102692.53;5062137;28;20072;-50
2021/03/21 08:36:21;;;;;;;4.80;2.20;;;;;;;9.71;75.18;102680.53;5074714;28;20116;-48
2021/03/21 08:39:22;;;;;;;3.97;1.30;;;;;;;9.84;75.79;102679.84;5069404;28;20043;-53
2021/03/21 08:41:56;;;;;;;11.18;1.65;;;;;;;9.97;75.66;102692.13;5057115;28;20045;-48
2021/03/21 08:44:46;;;;;;;4.60;1.58;;;;;;;9.97;74.52;102697.66;5076760;28;20040;-49
2021/03/21 08:47:23;;;;;;;4.05;0.98;;;;;;;9.98;73.92;102708.44;5076345;28;20044;-50
2021/03/21 08:49:59;;;;;;;8.30;1.20;;;;;;;9.98;74.10;102704.88;5075346;28;20028;-49
2021/03/21 08:52:30;;;;;;;5.35;0.88;;;;;;;10.00;71.90;102700.69;5076284;28;20036;-50
2021/03/21 08:55:00;;;;;;;7.53;2.38;;;;;;;10.04;72.93;102698.97;5075579;28;20087;-48
2021/03/21 08:57:48;;;;;;;8.40;1.27;;;;;;;10.01;70.64;102702.31;5076338;28;20052;-48
2021/03/21 09:00:35;;;;;;;7.05;0.90;;;;;;;10.07;72.60;102697.56;5067173;28;20037;-50
2021/03/21 09:03:30;;;;;;;8.13;1.48;;;;;;;10.18;72.19;102696.34;5065220;28;20063;-52
2021/03/21 09:06:26;;;;;;;2.92;1.13;;;;;;;10.25;70.12;102689.34;5053125;28;20044;-49
2021/03/21 09:09:37;;;;;;;5.32;1.38;;;;;;;10.33;70.03;102691.44;5070267;28;20044;-48
2021/03/21 09:12:24;;;;;;;4.35;0.88;;;;;;;10.43;69.78;102698.81;5073895;28;20041;-47
2021/03/21 09:14:52;;;;;;;6.55;1.45;;;;;;;10.47;71.05;102705.41;5073135;28;20052;-52
2021/03/21 09:17:21;;;;;;;3.55;0.65;;;;;;;10.54;70.07;102705.03;5073776;28;20040;-48
2021/03/21 09:19:55;;;;;;;5.88;1.05;;;;;;;10.61;69.90;102697.19;5055848;28;20057;-51
2021/03/21 09:22:41;;;;;;;5.68;1.73;;;;;;;10.62;66.22;102699.63;5072868;28;20072;-48
2021/03/21 09:25:32;;;;;;;5.38;0.90;;;;;;;10.63;68.43;102703.25;5073051;28;20041;-49
2021/03/21 09:28:19;;;;;;;14.85;1.98;;;;;;;10.67;68.54;102713.41;5085167;28;20133;-48
2021/03/21 09:31:11;;;;;;;10.85;2.10;;;;;;;10.60;66.87;102717.69;5050983;28;20516;-49
2021/03/21 09:34:05;;;;;;;5.35;1.00;;;;;;;10.44;66.82;102719.00;5052493;28;20065;-49
2021/03/21 09:37:00;;;;;;;8.48;1.48;;;;;;;10.32;67.00;102717.50;5052160;28;20168;-48
2021/03/21 09:40:01;;;;;;;12.43;1.92;;;;;;;10.22;64.64;102714.84;5036293;28;20051;-56
2021/03/21 09:42:32;;;;;;;6.03;1.05;;;;;;;10.49;65.98;102710.63;5092997;28;20055;-48
2021/03/21 09:44:59;;;;;;;3.45;0.85;;;;;;;10.71;65.96;102703.41;5079927;28;20082;-49
2021/03/21 09:47:28;;;;;;;7.13;1.50;;;;;;;10.70;64.85;102717.53;5072443;28;20036;-51
2021/03/21 09:50:30;;;;;;;11.25;1.48;;;;;;;10.65;65.24;102709.31;5073150;28;20043;-50
2021/03/21 09:53:25;;;;;;;9.68;2.13;;;;;;;10.63;64.37;102706.84;5010142;28;20530;-50
2021/03/21 09:56:37;;;;;;;9.30;1.95;;;;;;;10.60;63.99;102706.59;5070368;28;20226;-51
2021/03/21 09:59:39;;;;;;;11.82;1.23;;;;;;;10.58;65.11;102714.38;5055362;28;20044;-51
2021/03/21 10:02:37;;;;;;;3.72;1.13;;;;;;;10.51;65.03;102709.19;5072358;28;20048;-51
2021/03/21 10:05:22;;;;;;;5.38;1.40;;;;;;;10.49;64.61;102717.00;5071532;28;20048;-50
2021/03/21 10:07:53;;;;;;;5.60;1.35;;;;;;;10.54;63.98;102719.69;5072242;28;20184;-52
2021/03/21 10:10:26;;;;;;;8.98;2.45;;;;;;;10.53;64.75;102712.53;5073097;28;20128;-51
2021/03/21 10:12:53;;;;;;;6.05;1.33;;;;;;;10.47;64.49;102708.16;5072184;28;20059;-48
2021/03/21 10:15:25;;;;;;;9.20;2.08;;;;;;;10.48;64.59;102709.00;5071018;28;20136;-48
2021/03/21 10:17:55;;;;;;;;;;;;;;;10.40;62.91;102718.78;5071236;28;20033;-48
2021/03/21 10:20:54;;;;;;;6.07;1.50;;;;;;;10.34;63.71;102722.72;5072210;28;19993;-47
2021/03/21 10:23:20;;;;;;;7.90;1.30;;;;;;;10.36;64.73;102724.09;5071550;28;20075;-47
2021/03/21 10:25:48;;;;;;;4.25;0.80;;;;;;;10.37;64.14;102714.66;5072465;28;20110;-51
2021/03/21 10:28:39;;;;;;;5.20;1.23;;;;;;;10.44;63.71;102716.22;5073144;28;20452;-48
2021/03/21 10:31:36;;;;;;;14.75;2.42;;;;;;;10.48;62.29;102720.06;5071745;28;20044;-50
2021/03/21 10:34:03;;;;;;;6.05;1.65;;;;;;;10.51;63.89;102716.72;5051978;28;20068;-46
2021/03/21 10:36:41;;;;;;;4.43;1.10;;;;;;;10.49;63.44;102716.16;5072213;28;20045;-49
2021/03/21 10:39:23;;;;;;;2.85;1.08;;;;;;;10.58;63.61;102703.31;5072196;28;20056;-48
2021/03/21 10:41:59;;;;;;;7.60;1.70;;;;;;;10.64;63.78;102707.66;5072340;28;20040;-49
2021/03/21 10:44:32;;;;;;;5.38;1.05;;;;;;;10.71;62.63;102702.56;5053765;28;20044;-52
2021/03/21 10:47:01;;;;;;;9.18;1.30;;;;;;;10.71;63.04;102708.13;5071730;28;20128;-50
2021/03/21 10:49:49;;;;;;;7.22;1.10;;;;;;;10.74;62.46;102704.75;5071760;28;20045;-48
2021/03/21 10:52:31;;;;;;;10.18;1.70;;;;;;;10.85;61.92;102701.56;5071038;28;20052;-54
2021/03/21 10:55:13;;;;;;;;;;;;;;;10.76;61.63;102710.81;5072120;28;20048;-48
2021/03/21 10:57:46;;;;;;;8.38;1.55;;;;;;;10.79;63.22;102696.38;5053383;28;20274;-47
2021/03/21 11:00:32;;;;;;;10.50;1.65;;;;;;;10.80;61.81;102696.06;5071425;28;20497;-50
2021/03/21 11:02:59;;;;;;;12.02;1.75;;;;;;;10.77;63.17;102690.31;5071668;28;20057;-51
2021/03/21 11:05:47;;;;;;;4.28;1.73;;;;;;;10.69;63.15;102699.28;5069235;28;20131;-49
2021/03/21 11:08:34;;;;;;;7.43;2.17;;;;;;;10.68;63.00;102700.41;5071012;28;20050;-48
2021/03/21 11:11:32;;;;;;;10.90;2.95;;;;;;;10.72;62.42;102698.69;5071745;28;20075;-52
2021/03/21 11:14:25;;;;;;;6.80;1.60;;;;;;;10.72;62.52;102693.16;5070169;28;20078;-48
2021/03/21 11:17:20;;;;;;;6.32;1.23;;;;;;;10.81;61.98;102696.88;5070430;28;20040;-52
2021/03/21 11:20:24;;;;;;;7.15;2.10;;;;;;;10.95;62.42;102686.69;5070390;28;20047;-55
2021/03/21 11:23:22;;;;;;;6.72;2.75;;;;;;;11.15;62.11;102674.44;5077848;28;20129;-48
2021/03/21 11:26:37;;;;;;;7.80;1.15;;;;;;;11.30;60.48;102677.81;5090515;28;20124;-49
2021/03/21 11:29:03;;;;;;;9.45;1.52;;;;;;;11.41;62.09;102679.28;5087888;28;20068;-55
2021/03/21 11:31:51;;;;;;;9.02;2.95;;;;;;;11.39;60.82;102680.69;5037188;28;20049;-51
2021/03/21 11:34:33;;;;;;;6.45;1.42;;;;;;;11.37;60.34;102677.41;5051063;28;20055;-52
2021/03/21 11:37:28;;;;;;;6.50;1.20;;;;;;;11.28;61.04;102674.50;5049770;28;20135;-53
2021/03/21 11:40:13;;;;;;;8.85;2.08;;;;;;;11.34;60.81;102670.53;5051363;28;20044;-52
2021/03/21 11:42:43;;;;;;;4.65;1.48;;;;;;;11.46;61.17;102657.00;5050940;28;20053;-51
2021/03/21 11:45:19;;;;;;;6.13;1.60;;;;;;;11.57;59.76;102663.19;5055650;28;20075;-51
2021/03/21 11:48:09;;;;;;;5.43;1.60;;;;;;;11.69;60.69;102663.56;5070764;28;20051;-52
2021/03/21 11:50:56;;;;;;;7.38;2.08;;;;;;;11.78;60.32;102658.13;5090024;28;20127;-53
2021/03/21 11:53:47;;;;;;;5.82;1.48;;;;;;;11.66;58.85;102646.66;5085124;28;20141;-53
2021/03/21 11:56:46;;;;;;;9.25;1.60;;;;;;;11.81;58.72;102649.19;5069658;28;20056;-49
2021/03/21 11:59:46;;;;;;;7.65;1.67;;;;;;;11.91;57.69;102643.44;5070466;28;20067;-50
2021/03/21 12:02:49;;;;;;;4.85;1.48;;;;;;;11.83;56.60;102641.38;5053063;28;20393;-51
2021/03/21 12:05:22;;;;;;;7.97;1.45;;;;;;;11.80;58.56;102633.66;5019831;28;20076;-55
2021/03/21 12:07:48;;;;;;;7.88;1.55;;;;;;;11.82;59.24;102636.94;5058464;28;20106;-51
2021/03/21 12:10:42;;;;;;;4.45;1.70;;;;;;;11.96;58.25;102635.00;5070548;28;20584;-52
2021/03/21 12:13:35;;;;;;;6.35;1.90;;;;;;;11.99;57.89;102639.94;5070111;28;20416;-51
2021/03/21 12:16:35;;;;;;;12.05;2.45;;;;;;;12.01;56.31;102637.66;5029222;28;20044;-51
2021/03/21 12:19:05;;;;;;;7.32;1.80;;;;;;;12.12;58.71;102641.88;5012904;28;20046;-53
2021/03/21 12:21:38;;;;;;;10.98;1.90;;;;;;;12.27;57.69;102633.22;5010924;28;20096;-52
2021/03/21 12:24:12;;;;;;;10.35;1.77;;;;;;;12.28;58.04;102632.09;5011817;28;20089;-47
2021/03/21 12:26:45;;;;;;;7.68;1.98;;;;;;;12.32;58.01;102630.34;5011347;28;20145;-50
2021/03/21 12:29:23;;;;;;;6.85;1.88;;;;;;;12.36;56.27;102624.97;5010884;28;20134;-50
2021/03/21 12:31:52;;;;;;;6.07;1.70;;;;;;;12.45;57.63;102629.47;5027192;28;20042;-53